WIII/CGK METAR and TAF weather

Enter ICAO airport designator
Station Type Date Time Source
WIII METAR 2020/04/04 11:30 UTC NOAA

WIII 041130Z 03003KT 7000 FEW018CB SCT020 30/24 Q1010 NOSIG RMK CB TO S


Station Type Date Time Source
WIII Decoded METAR 2020/04/04 11:30 UTC NOAA

Jakarta / Soekarno-Hatta, Indonesia (WIII) 06-07S 106-39E 8M
Apr 04, 2020 - 07:30 AM EDT / 2020.04.04 1130 UTC
Wind: from the NNE (030 degrees) at 3 MPH (3 KT):0
Visibility: 4 mile(s):0
Sky conditions: partly cloudy
Weather: Cumulonimbus clouds observed
Temperature: 86 F (30 C)
Heat index: 95.0 F (35.0 C):1
Dew Point: 75 F (24 C)
Relative Humidity: 70%
Pressure (altimeter): 29.83 in. Hg (1010 hPa)
ob: WIII 041130Z 03003KT 7000 FEW018CB SCT020 30/24 Q1010 NOSIG RMK CB TO S
cycle: 11

Station Type Date Time Source
WIII TAF 2020/04/04 12:59 UTC NOAA

TAF WIII 041100Z 0412/0518 02008KT 7000 SCT020
BECMG 0416/0418 24006KT

Example: see airport list